createdAt,value
2023-03-22T00:00:28.926Z,8.40
2023-03-22T00:01:28.931Z,9.80
2023-03-22T00:02:28.940Z,11.00
2023-03-22T00:03:28.932Z,7.50
2023-03-22T00:04:28.967Z,10.40
2023-03-22T00:05:28.864Z,8.10
2023-03-22T00:06:28.865Z,9.60
2023-03-22T00:07:28.874Z,7.50
2023-03-22T00:08:28.814Z,8.00
2023-03-22T00:09:28.807Z,7.70
2023-03-22T00:10:28.793Z,8.20
2023-03-22T00:11:28.812Z,10.40
2023-03-22T00:12:28.760Z,9.30
2023-03-22T00:13:28.888Z,7.70
2023-03-22T00:14:28.733Z,9.00
2023-03-22T00:15:28.729Z,8.80
2023-03-22T00:16:28.825Z,12.30
2023-03-22T00:17:28.727Z,8.40
2023-03-22T00:18:28.682Z,8.50
2023-03-22T00:19:28.723Z,9.40
2023-03-22T00:20:28.672Z,10.10
2023-03-22T00:21:28.667Z,9.70
2023-03-22T00:22:28.651Z,9.10
2023-03-22T00:23:28.640Z,10.00
2023-03-22T00:24:28.624Z,9.40
2023-03-22T00:25:28.632Z,9.40
2023-03-22T00:26:28.624Z,9.40
2023-03-22T00:27:28.563Z,9.70
2023-03-22T00:28:28.555Z,10.20
2023-03-22T00:29:28.550Z,12.30
2023-03-22T00:30:28.548Z,10.20
2023-03-22T00:31:28.546Z,9.00
2023-03-22T00:32:28.507Z,9.80
2023-03-22T00:33:28.510Z,8.40
2023-03-22T00:34:28.540Z,9.60
2023-03-22T00:35:28.486Z,8.60
2023-03-22T00:36:28.477Z,10.70
2023-03-22T00:37:28.434Z,9.30
2023-03-22T00:38:41.451Z,13.40
2023-03-22T00:39:28.412Z,8.00
2023-03-22T00:40:28.403Z,9.80
2023-03-22T00:41:28.378Z,11.30
2023-03-22T00:42:28.391Z,9.10
2023-03-22T00:43:28.359Z,7.90
2023-03-22T00:44:28.382Z,11.90
2023-03-22T00:45:28.386Z,8.30
2023-03-22T00:46:28.390Z,9.00
2023-03-22T00:47:28.372Z,11.00
2023-03-22T00:48:28.288Z,8.80
2023-03-22T00:49:28.265Z,10.70
2023-03-22T00:50:28.250Z,10.10
2023-03-22T00:51:28.327Z,8.40
2023-03-22T00:52:28.233Z,9.80
2023-03-22T00:53:28.220Z,9.50
2023-03-22T00:54:28.215Z,12.60
2023-03-22T00:55:28.213Z,9.50
2023-03-22T00:56:28.202Z,12.00
2023-03-22T00:57:28.213Z,8.30
2023-03-22T00:58:28.167Z,9.70
2023-03-22T00:59:28.144Z,9.50
2023-03-22T01:00:28.119Z,9.90
2023-03-22T01:01:28.210Z,9.60
2023-03-22T01:02:28.115Z,9.90
2023-03-22T01:03:28.181Z,9.20
2023-03-22T01:04:28.097Z,10.00
2023-03-22T01:05:28.120Z,11.30
2023-03-22T01:06:28.167Z,12.40
2023-03-22T01:07:28.041Z,9.60
2023-03-22T01:08:28.013Z,9.10
2023-03-22T01:09:28.080Z,8.60
2023-03-22T01:10:27.986Z,11.10
2023-03-22T01:11:27.963Z,9.50
2023-03-22T01:12:27.994Z,11.10
2023-03-22T01:13:27.936Z,9.40
2023-03-22T01:14:27.928Z,10.20
2023-03-22T01:15:27.965Z,10.20
2023-03-22T01:16:28.021Z,10.00
2023-03-22T01:17:27.890Z,11.00
2023-03-22T01:18:27.868Z,12.60
2023-03-22T01:19:27.941Z,11.70
2023-03-22T01:20:27.842Z,10.50
2023-03-22T01:21:27.832Z,9.40
2023-03-22T01:22:27.834Z,10.70
2023-03-22T01:23:27.806Z,8.10
2023-03-22T01:24:27.762Z,11.10
2023-03-22T01:25:27.767Z,9.50
2023-03-22T01:26:27.759Z,11.90
2023-03-22T01:27:27.737Z,13.00
2023-03-22T01:28:27.798Z,12.40
2023-03-22T01:29:27.720Z,12.60
2023-03-22T01:30:27.797Z,9.90
2023-03-22T01:31:27.702Z,10.20
2023-03-22T01:32:27.723Z,9.40
2023-03-22T01:33:27.739Z,11.20
2023-03-22T01:34:27.675Z,11.00
2023-03-22T01:35:27.759Z,12.70
2023-03-22T01:36:27.684Z,11.70
2023-03-22T01:37:27.640Z,11.90
2023-03-22T01:38:27.646Z,7.90
2023-03-22T01:39:27.600Z,11.60
2023-03-22T01:40:27.577Z,9.60
2023-03-22T01:41:27.628Z,10.60
2023-03-22T01:42:27.543Z,12.30
2023-03-22T01:43:27.567Z,10.20
2023-03-22T01:44:27.535Z,10.70
2023-03-22T01:45:27.517Z,10.30
2023-03-22T01:46:27.546Z,12.40
2023-03-22T01:47:27.514Z,11.00
2023-03-22T01:48:27.504Z,11.00
2023-03-22T01:49:27.463Z,10.30
2023-03-22T01:50:27.419Z,14.30
2023-03-22T01:51:27.442Z,9.10
2023-03-22T01:52:27.449Z,9.50
2023-03-22T01:53:27.483Z,12.50
2023-03-22T01:54:27.476Z,9.50
2023-03-22T01:55:27.404Z,9.50
2023-03-22T01:56:27.404Z,11.40
2023-03-22T01:57:27.356Z,10.20
2023-03-22T01:58:27.333Z,12.40
2023-03-22T01:59:27.430Z,10.40
2023-03-22T02:00:27.358Z,9.40
2023-03-22T02:01:27.435Z,10.30
2023-03-22T02:02:27.324Z,13.30
2023-03-22T02:03:27.343Z,11.60
2023-03-22T02:04:27.234Z,12.20
2023-03-22T02:05:27.268Z,15.10
2023-03-22T02:06:27.252Z,12.20
2023-03-22T02:07:27.210Z,10.40
2023-03-22T02:08:27.229Z,12.00
2023-03-22T02:09:27.215Z,11.60
2023-03-22T02:10:27.201Z,13.20
2023-03-22T02:11:27.227Z,12.30
2023-03-22T02:12:27.250Z,13.50
2023-03-22T02:13:27.221Z,11.00
2023-03-22T02:14:27.486Z,13.30
2023-03-22T02:15:27.160Z,12.40
2023-03-22T02:16:27.077Z,9.60
2023-03-22T02:17:27.091Z,15.40
2023-03-22T02:18:27.155Z,10.20
2023-03-22T02:19:27.048Z,13.20
2023-03-22T02:20:27.020Z,11.10
2023-03-22T02:21:27.051Z,11.80
2023-03-22T02:22:27.017Z,13.20
2023-03-22T02:23:27.008Z,12.90
2023-03-22T02:24:26.980Z,15.60
2023-03-22T02:25:27.074Z,12.80
2023-03-22T02:26:26.950Z,14.50
2023-03-22T02:27:47.947Z,16.30
2023-03-22T02:28:26.951Z,14.70
2023-03-22T02:29:26.931Z,14.90
2023-03-22T02:30:26.890Z,14.90
2023-03-22T02:31:26.896Z,19.70
2023-03-22T02:32:26.868Z,16.80
2023-03-22T02:33:26.929Z,15.50
2023-03-22T02:34:26.852Z,14.70
2023-03-22T02:35:26.858Z,16.20
2023-03-22T02:36:26.852Z,16.30
2023-03-22T02:37:26.799Z,15.80
2023-03-22T02:38:26.797Z,16.70
2023-03-22T02:39:26.934Z,17.90
2023-03-22T02:40:26.777Z,15.80
2023-03-22T02:41:26.802Z,11.90
2023-03-22T02:42:26.785Z,14.20
2023-03-22T02:43:26.931Z,14.30
2023-03-22T02:44:26.718Z,11.90
2023-03-22T02:45:27.518Z,14.50
2023-03-22T02:46:27.959Z,15.10
2023-03-22T02:47:26.652Z,13.90
2023-03-22T02:48:26.688Z,12.80
2023-03-22T02:49:26.662Z,14.70
2023-03-22T02:50:26.630Z,15.20
2023-03-22T02:51:26.643Z,13.40
2023-03-22T02:52:26.597Z,16.30
2023-03-22T02:53:26.629Z,14.60
2023-03-22T02:54:26.589Z,15.10
2023-03-22T02:55:26.563Z,12.20
2023-03-22T02:56:26.563Z,15.10
2023-03-22T02:57:26.577Z,15.50
2023-03-22T02:58:26.536Z,14.30
2023-03-22T02:59:26.496Z,13.10
2023-03-22T03:00:26.484Z,14.40
2023-03-22T03:01:26.576Z,14.20
2023-03-22T03:02:26.487Z,13.20
2023-03-22T03:03:26.505Z,14.30
2023-03-22T03:04:26.414Z,16.00
2023-03-22T03:05:26.413Z,11.40
2023-03-22T03:06:26.483Z,15.50
2023-03-22T03:07:26.443Z,14.60
2023-03-22T03:08:26.470Z,15.10
2023-03-22T03:09:26.399Z,14.70
2023-03-22T03:10:26.389Z,16.20
2023-03-22T03:11:26.392Z,14.40
2023-03-22T03:12:26.399Z,11.40
2023-03-22T03:13:26.324Z,19.50
2023-03-22T03:14:26.295Z,12.40
2023-03-22T03:15:26.380Z,12.80
2023-03-22T03:16:26.421Z,12.70
2023-03-22T03:17:26.528Z,17.60
2023-03-22T03:18:26.414Z,15.60
2023-03-22T03:19:26.265Z,14.00
2023-03-22T03:20:26.203Z,13.60
2023-03-22T03:21:26.191Z,13.20
2023-03-22T03:22:26.249Z,12.50
2023-03-22T03:23:26.216Z,12.00
2023-03-22T03:24:26.170Z,15.20
2023-03-22T03:25:26.345Z,16.80
2023-03-22T03:26:26.164Z,14.00
2023-03-22T03:27:26.122Z,16.40
2023-03-22T03:28:26.312Z,16.40
2023-03-22T03:29:26.126Z,11.50
2023-03-22T03:30:26.135Z,12.80
2023-03-22T03:31:26.263Z,12.40
2023-03-22T03:32:26.000Z,13.80
2023-03-22T03:33:26.209Z,12.40
2023-03-22T03:34:26.024Z,14.60
2023-03-22T03:35:26.028Z,16.90
2023-03-22T03:36:26.018Z,12.40
2023-03-22T03:37:26.151Z,14.90
2023-03-22T03:38:26.077Z,12.80
2023-03-22T03:39:25.958Z,10.80
2023-03-22T03:40:25.997Z,11.70
2023-03-22T03:41:25.965Z,13.30
2023-03-22T03:42:25.897Z,12.90
2023-03-22T03:43:26.170Z,12.40
2023-03-22T03:44:25.925Z,10.70
2023-03-22T03:45:25.998Z,13.80
2023-03-22T03:46:25.864Z,13.30
2023-03-22T03:47:25.881Z,11.00
2023-03-22T03:48:26.119Z,12.40
2023-03-22T03:49:26.019Z,13.50
2023-03-22T03:50:25.845Z,13.30
2023-03-22T03:51:25.826Z,12.10
2023-03-22T03:52:25.825Z,13.10
2023-03-22T03:53:25.781Z,14.30
2023-03-22T03:54:25.763Z,14.90
2023-03-22T03:55:25.804Z,14.80
2023-03-22T03:56:25.762Z,15.40
2023-03-22T03:57:25.691Z,15.30
2023-03-22T03:58:25.734Z,12.30
2023-03-22T03:59:25.690Z,13.10
2023-03-22T04:00:25.676Z,17.10
2023-03-22T04:01:25.715Z,14.20
2023-03-22T04:02:25.707Z,12.20
2023-03-22T04:03:26.142Z,16.50
2023-03-22T04:04:25.757Z,12.00
2023-03-22T04:05:25.559Z,14.70
2023-03-22T04:06:25.566Z,14.20
2023-03-22T04:07:25.610Z,13.10
2023-03-22T04:08:25.680Z,12.80
2023-03-22T04:09:25.538Z,12.90
2023-03-22T04:10:25.530Z,15.00
2023-03-22T04:11:25.547Z,14.10
2023-03-22T04:12:25.496Z,14.50
2023-03-22T04:13:25.504Z,14.90
2023-03-22T04:14:25.523Z,14.40
2023-03-22T04:15:25.497Z,14.60
2023-03-22T04:16:25.601Z,14.10
2023-03-22T04:17:25.412Z,17.40
2023-03-22T04:18:25.385Z,11.70
2023-03-22T04:19:25.379Z,12.60
2023-03-22T04:20:25.351Z,13.70
2023-03-22T04:21:25.350Z,13.50
2023-03-22T04:22:25.340Z,16.50
2023-03-22T04:23:25.321Z,13.10
2023-03-22T04:24:25.360Z,14.00
2023-03-22T04:25:25.297Z,14.50
2023-03-22T04:26:26.728Z,12.50
2023-03-22T04:27:25.280Z,14.30
2023-03-22T04:28:25.260Z,12.80
2023-03-22T04:29:25.266Z,13.80
2023-03-22T04:30:25.303Z,15.20
2023-03-22T04:31:26.160Z,14.90
2023-03-22T04:32:25.215Z,13.90
2023-03-22T04:33:25.205Z,15.10
2023-03-22T04:34:25.226Z,14.40
2023-03-22T04:35:25.209Z,15.20
2023-03-22T04:36:25.131Z,15.70
2023-03-22T04:37:25.160Z,13.40
2023-03-22T04:38:25.127Z,13.60
2023-03-22T04:39:25.172Z,14.90
2023-03-22T04:40:25.110Z,13.70
2023-03-22T04:41:25.100Z,16.40
2023-03-22T04:42:25.071Z,15.70
2023-03-22T04:43:25.047Z,13.70
2023-03-22T04:44:25.088Z,14.10
2023-03-22T04:45:25.022Z,14.80
2023-03-22T04:46:25.181Z,12.60
2023-03-22T04:47:24.986Z,13.90
2023-03-22T04:48:25.002Z,18.20
2023-03-22T04:49:25.000Z,17.20
2023-03-22T04:50:24.950Z,17.30
2023-03-22T04:51:24.934Z,14.10
2023-03-22T04:52:24.913Z,17.10
2023-03-22T04:53:24.911Z,12.40
2023-03-22T04:54:24.900Z,15.40
2023-03-22T04:55:24.894Z,15.30
2023-03-22T04:56:24.876Z,17.60
2023-03-22T04:57:24.864Z,18.70
2023-03-22T04:58:24.846Z,16.90
2023-03-22T04:59:24.885Z,21.60
2023-03-22T05:00:24.826Z,16.00
2023-03-22T05:01:24.857Z,15.10
2023-03-22T05:02:24.857Z,15.60
2023-03-22T05:03:24.823Z,14.90
2023-03-22T05:04:24.786Z,16.20
2023-03-22T05:05:24.868Z,16.50
2023-03-22T05:06:24.817Z,16.50
2023-03-22T05:07:24.715Z,16.50
2023-03-22T05:08:24.691Z,18.10
2023-03-22T05:09:24.700Z,18.00
2023-03-22T05:10:24.667Z,15.20
2023-03-22T05:11:24.652Z,16.00
2023-03-22T05:12:24.638Z,12.60
2023-03-22T05:13:24.648Z,15.40
2023-03-22T05:14:24.711Z,13.30
2023-03-22T05:15:24.634Z,15.60
2023-03-22T05:16:24.688Z,15.00
2023-03-22T05:17:24.575Z,15.80
2023-03-22T05:18:24.550Z,15.40
2023-03-22T05:19:24.558Z,15.80
2023-03-22T05:20:24.547Z,16.50
2023-03-22T05:21:24.539Z,15.20
2023-03-22T05:22:24.512Z,16.30
2023-03-22T05:23:24.513Z,11.90
2023-03-22T05:24:24.527Z,14.70
2023-03-22T05:25:24.493Z,17.60
2023-03-22T05:26:24.502Z,15.10
2023-03-22T05:27:24.450Z,16.70
2023-03-22T05:28:24.447Z,13.50
2023-03-22T05:29:25.013Z,16.10
2023-03-22T05:30:25.608Z,16.50
2023-03-22T05:31:24.543Z,14.60
2023-03-22T05:32:24.394Z,14.80
2023-03-22T05:33:24.392Z,13.10
2023-03-22T05:34:24.357Z,13.80
2023-03-22T05:35:24.401Z,16.50
2023-03-22T05:36:24.322Z,13.70
2023-03-22T05:37:24.342Z,11.90
2023-03-22T05:38:24.327Z,15.40
2023-03-22T05:39:24.276Z,12.50
2023-03-22T05:40:24.284Z,14.60
2023-03-22T05:41:24.262Z,14.90
2023-03-22T05:42:24.235Z,12.70
2023-03-22T05:43:25.979Z,14.70
2023-03-22T05:44:24.257Z,15.10
2023-03-22T05:45:26.329Z,14.10
2023-03-22T05:46:26.438Z,11.20
2023-03-22T05:47:24.178Z,17.70
2023-03-22T05:48:24.190Z,17.30
2023-03-22T05:49:24.137Z,14.10
2023-03-22T05:50:24.123Z,12.70
2023-03-22T05:51:24.119Z,13.60
2023-03-22T05:52:24.104Z,15.10
2023-03-22T05:53:24.082Z,14.80
2023-03-22T05:54:24.085Z,13.20
2023-03-22T05:55:26.216Z,15.50
2023-03-22T05:56:24.102Z,13.80
2023-03-22T05:57:24.038Z,11.60
2023-03-22T05:58:24.221Z,11.50
2023-03-22T05:59:24.080Z,12.70
2023-03-22T06:00:24.068Z,12.50
2023-03-22T06:01:27.058Z,13.00
2023-03-22T06:02:24.481Z,13.00
2023-03-22T06:03:24.017Z,10.20
2023-03-22T06:04:23.981Z,11.80
2023-03-22T06:05:28.334Z,13.00
2023-03-22T06:06:23.935Z,11.70
2023-03-22T06:07:26.548Z,14.90
2023-03-22T06:08:26.476Z,12.90
2023-03-22T06:09:23.884Z,12.10
2023-03-22T06:10:23.937Z,12.50
2023-03-22T06:11:23.907Z,12.70
2023-03-22T06:12:23.861Z,11.70
2023-03-22T06:13:23.931Z,12.70
2023-03-22T06:14:23.853Z,11.70
2023-03-22T06:15:26.061Z,13.80
2023-03-22T06:16:26.959Z,12.40
2023-03-22T06:17:23.794Z,13.50
2023-03-22T06:18:23.789Z,11.80
2023-03-22T06:19:23.724Z,14.70
2023-03-22T06:20:23.740Z,12.50
2023-03-22T06:21:23.872Z,13.90
2023-03-22T06:22:44.724Z,15.40
2023-03-22T06:23:23.767Z,11.70
2023-03-22T06:24:23.673Z,11.90
2023-03-22T06:25:23.687Z,12.40
2023-03-22T06:26:23.631Z,13.40
2023-03-22T06:27:23.637Z,13.20
2023-03-22T06:28:23.637Z,14.00
2023-03-22T06:29:23.597Z,13.30
2023-03-22T06:30:23.770Z,12.50
2023-03-22T06:31:23.567Z,12.20
2023-03-22T06:32:23.644Z,11.60
2023-03-22T06:33:23.549Z,10.90
2023-03-22T06:34:23.573Z,13.70
2023-03-22T06:35:23.552Z,11.10
2023-03-22T06:36:23.538Z,13.40
2023-03-22T06:37:23.478Z,11.80
2023-03-22T06:38:23.475Z,11.10
2023-03-22T06:39:23.494Z,9.60
2023-03-22T06:40:23.445Z,10.00
2023-03-22T06:41:23.422Z,10.00
2023-03-22T06:42:23.441Z,8.80
2023-03-22T06:43:23.395Z,11.20
2023-03-22T06:44:23.412Z,10.70
2023-03-22T06:45:23.388Z,8.70
2023-03-22T06:46:23.585Z,13.20
2023-03-22T06:47:23.339Z,8.50
2023-03-22T06:48:23.348Z,9.60
2023-03-22T06:49:23.337Z,8.90
2023-03-22T06:50:23.356Z,10.90
2023-03-22T06:51:23.308Z,14.40
2023-03-22T06:52:23.313Z,8.60
2023-03-22T06:53:23.353Z,8.90
2023-03-22T06:54:44.307Z,14.00
2023-03-22T06:55:23.324Z,12.80
2023-03-22T06:56:23.256Z,8.50
2023-03-22T06:57:23.183Z,13.10
2023-03-22T06:58:23.187Z,9.20
2023-03-22T06:59:25.213Z,8.90
2023-03-22T07:00:24.227Z,10.70
2023-03-22T07:01:26.347Z,11.30
2023-03-22T07:02:24.260Z,9.80
2023-03-22T07:03:23.144Z,9.60
2023-03-22T07:04:23.148Z,9.60
2023-03-22T07:05:23.109Z,10.30
2023-03-22T07:06:23.094Z,8.00
2023-03-22T07:07:23.056Z,9.00
2023-03-22T07:08:23.075Z,8.40
2023-03-22T07:09:24.718Z,11.10
2023-03-22T07:10:23.014Z,7.90
2023-03-22T07:11:23.033Z,7.70
2023-03-22T07:12:25.167Z,9.10
2023-03-22T07:13:24.077Z,10.40
2023-03-22T07:14:22.962Z,6.70
2023-03-22T07:15:22.961Z,10.40
2023-03-22T07:16:23.004Z,6.50
2023-03-22T07:17:23.004Z,11.60
2023-03-22T07:18:22.961Z,12.80
2023-03-22T07:19:22.965Z,10.80
2023-03-22T07:20:22.890Z,9.50
2023-03-22T07:21:22.906Z,9.00
2023-03-22T07:22:23.009Z,6.60
2023-03-22T07:23:23.001Z,6.90
2023-03-22T07:24:22.824Z,9.50
2023-03-22T07:25:22.814Z,11.50
2023-03-22T07:26:22.826Z,9.20
2023-03-22T07:27:22.853Z,7.90
2023-03-22T07:28:43.855Z,6.20
2023-03-22T07:29:46.019Z,6.90
2023-03-22T07:30:25.860Z,6.20
2023-03-22T07:31:22.761Z,12.60
2023-03-22T07:33:48.888Z,9.90
2023-03-22T07:34:49.914Z,9.00
2023-03-22T07:35:49.899Z,8.50
2023-03-22T07:36:49.904Z,7.00
2023-03-22T07:37:49.860Z,5.50
2023-03-22T07:38:49.896Z,6.50
2023-03-22T07:39:49.835Z,5.40
2023-03-22T07:40:50.017Z,9.20
2023-03-22T07:41:49.858Z,10.70
2023-03-22T07:42:49.842Z,8.20
2023-03-22T07:43:56.662Z,6.40
2023-03-22T07:44:49.981Z,6.90
2023-03-22T07:45:49.749Z,8.00
2023-03-22T07:46:49.798Z,9.70
2023-03-22T07:47:50.872Z,7.80
2023-03-22T07:48:49.868Z,6.30
2023-03-22T07:49:49.743Z,6.80
2023-03-22T07:50:49.822Z,6.50
2023-03-22T07:51:49.717Z,9.40
2023-03-22T07:52:49.674Z,6.80
2023-03-22T07:53:49.743Z,7.60
2023-03-22T07:54:49.640Z,7.90
2023-03-22T07:55:49.671Z,9.10
2023-03-22T07:56:51.418Z,7.00
2023-03-22T07:57:49.586Z,7.00
2023-03-22T07:58:49.631Z,7.40
2023-03-22T07:59:49.580Z,7.90
2023-03-22T08:00:49.568Z,8.40
2023-03-22T08:01:49.595Z,5.00
2023-03-22T08:02:49.611Z,6.70
2023-03-22T08:03:49.572Z,8.20
2023-03-22T08:04:51.897Z,6.50
2023-03-22T08:05:49.522Z,9.70
2023-03-22T08:06:49.513Z,6.20
2023-03-22T08:07:49.465Z,7.00
2023-03-22T08:08:49.449Z,9.10
2023-03-22T08:09:49.472Z,7.70
2023-03-22T08:10:49.476Z,6.70
2023-03-22T08:11:51.562Z,7.90
2023-03-22T08:12:49.387Z,6.40
2023-03-22T08:13:49.436Z,5.40
2023-03-22T08:14:49.371Z,6.90
2023-03-22T08:15:49.364Z,6.10
2023-03-22T08:16:49.398Z,8.20
2023-03-22T08:17:49.316Z,8.60
2023-03-22T08:18:49.353Z,7.80
2023-03-22T08:19:49.327Z,5.10
2023-03-22T08:20:49.339Z,6.30
2023-03-22T08:21:49.302Z,7.50
2023-03-22T08:22:49.263Z,5.40
2023-03-22T08:23:49.932Z,5.40
2023-03-22T08:24:49.261Z,5.80
2023-03-22T08:25:49.229Z,7.50
2023-03-22T08:26:49.212Z,5.10
2023-03-22T08:27:49.212Z,4.20
2023-03-22T08:28:49.167Z,9.50
2023-03-22T08:29:49.146Z,3.90
2023-03-22T08:30:49.416Z,7.30
2023-03-22T08:31:49.360Z,6.30
2023-03-22T08:32:49.232Z,5.60
2023-03-22T08:33:49.172Z,7.50
2023-03-22T08:34:49.088Z,5.80
2023-03-22T08:35:49.177Z,7.20
2023-03-22T08:36:49.080Z,5.50
2023-03-22T08:37:49.428Z,6.70
2023-03-22T08:38:49.032Z,12.50
2023-03-22T08:39:49.003Z,6.30
2023-03-22T08:40:49.031Z,4.40
2023-03-22T08:41:49.011Z,5.90
2023-03-22T08:42:49.288Z,5.20
2023-03-22T08:43:49.044Z,6.10
2023-03-22T08:44:48.940Z,7.10
2023-03-22T08:45:49.024Z,4.40
2023-03-22T08:46:49.010Z,5.00
2023-03-22T08:47:48.964Z,9.10
2023-03-22T08:48:49.083Z,7.00
2023-03-22T08:49:48.935Z,6.90
2023-03-22T08:50:48.874Z,6.10
2023-03-22T08:51:48.848Z,7.30
2023-03-22T08:52:48.896Z,4.50
2023-03-22T08:53:48.845Z,6.10
2023-03-22T08:54:48.818Z,8.00
2023-03-22T08:55:48.826Z,7.60
2023-03-22T08:56:48.803Z,7.70
2023-03-22T08:57:50.444Z,7.50
2023-03-22T08:58:48.751Z,9.50
2023-03-22T08:59:48.760Z,9.20
2023-03-22T09:00:49.936Z,8.80
2023-03-22T09:01:48.845Z,11.40
2023-03-22T09:02:48.794Z,8.00
2023-03-22T09:03:48.707Z,6.60
2023-03-22T09:04:48.729Z,9.00
2023-03-22T09:05:48.745Z,6.60
2023-03-22T09:06:48.717Z,8.00
2023-03-22T09:07:48.662Z,6.00
2023-03-22T09:08:48.648Z,8.30
2023-03-22T09:09:48.659Z,9.10
2023-03-22T09:10:48.599Z,9.20
2023-03-22T09:11:48.580Z,9.90
2023-03-22T09:12:48.577Z,5.90
2023-03-22T09:13:48.592Z,7.00
2023-03-22T09:14:48.559Z,6.10
2023-03-22T09:15:48.973Z,8.70
2023-03-22T09:16:48.511Z,8.70
2023-03-22T09:17:48.512Z,6.40
2023-03-22T09:18:48.537Z,8.10
2023-03-22T09:19:48.465Z,5.80
2023-03-22T09:20:48.444Z,8.10
2023-03-22T09:21:48.470Z,7.40
2023-03-22T09:22:48.428Z,8.00
2023-03-22T09:23:48.587Z,8.80
2023-03-22T09:24:48.491Z,8.70
2023-03-22T09:25:48.463Z,5.70
2023-03-22T09:26:48.429Z,4.60
2023-03-22T09:27:48.404Z,4.80
2023-03-22T09:28:48.415Z,5.90
2023-03-22T09:29:48.501Z,8.70
2023-03-22T09:30:49.218Z,6.80
2023-03-22T09:31:48.716Z,4.80
2023-03-22T09:32:48.656Z,5.50
2023-03-22T09:33:48.947Z,4.50
2023-03-22T09:34:48.606Z,3.50
2023-03-22T09:35:48.297Z,3.50
2023-03-22T09:36:48.233Z,6.70
2023-03-22T09:37:48.364Z,3.60
2023-03-22T09:38:48.245Z,5.10
2023-03-22T09:39:48.207Z,5.50
2023-03-22T09:40:48.263Z,6.20
2023-03-22T09:41:48.189Z,5.10
2023-03-22T09:42:48.218Z,9.50
2023-03-22T09:43:48.239Z,6.80
2023-03-22T09:44:48.170Z,9.40
2023-03-22T09:45:48.123Z,4.50
2023-03-22T09:46:48.106Z,4.80
2023-03-22T09:47:48.205Z,7.60
2023-03-22T09:48:49.350Z,5.10
2023-03-22T09:49:53.884Z,7.30
2023-03-22T09:50:48.093Z,3.90
2023-03-22T09:51:48.135Z,4.20
2023-03-22T09:52:48.016Z,6.80
2023-03-22T09:53:48.110Z,4.10
2023-03-22T09:54:48.066Z,6.70
2023-03-22T09:55:48.028Z,3.40
2023-03-22T09:56:47.993Z,4.80
2023-03-22T09:57:47.957Z,3.30
2023-03-22T09:58:48.025Z,6.10
2023-03-22T09:59:47.949Z,3.60
2023-03-22T10:00:48.027Z,4.10
2023-03-22T10:01:49.176Z,3.40
2023-03-22T10:02:50.077Z,4.50
2023-03-22T10:03:55.688Z,3.50
2023-03-22T10:04:47.854Z,5.40
2023-03-22T10:05:47.863Z,4.00
2023-03-22T10:06:47.823Z,6.10
2023-03-22T10:07:47.816Z,5.30
2023-03-22T10:08:47.829Z,4.70
2023-03-22T10:09:47.769Z,6.30
2023-03-22T10:10:47.766Z,6.10
2023-03-22T10:12:08.756Z,6.80
2023-03-22T10:12:50.845Z,7.20
2023-03-22T10:13:49.464Z,5.10
2023-03-22T10:14:47.737Z,4.80
2023-03-22T10:15:47.951Z,6.60
2023-03-22T10:16:47.725Z,8.10
2023-03-22T10:17:47.673Z,4.60
2023-03-22T10:18:47.887Z,7.80
2023-03-22T10:19:47.641Z,7.30
2023-03-22T10:20:47.674Z,7.90
2023-03-22T10:21:47.620Z,6.10
2023-03-22T10:22:47.626Z,5.00
2023-03-22T10:23:47.610Z,6.60
2023-03-22T10:24:47.599Z,6.20
2023-03-22T10:25:47.554Z,2.80
2023-03-22T10:26:47.603Z,4.50
2023-03-22T10:27:47.579Z,4.40
2023-03-22T10:28:47.617Z,5.40
2023-03-22T10:29:47.538Z,4.40
2023-03-22T10:30:47.514Z,7.80
2023-03-22T10:31:47.783Z,8.80
2023-03-22T10:32:57.165Z,4.70
2023-03-22T10:33:47.489Z,5.60
2023-03-22T10:34:47.465Z,10.90
2023-03-22T10:35:47.460Z,6.40
2023-03-22T10:36:47.431Z,7.10
2023-03-22T10:37:47.389Z,5.00
2023-03-22T10:38:47.414Z,5.20
2023-03-22T10:39:47.373Z,3.60
2023-03-22T10:40:47.363Z,12.10
2023-03-22T10:41:47.367Z,6.10
2023-03-22T10:42:47.347Z,7.80
2023-03-22T10:43:47.360Z,5.40
2023-03-22T10:44:47.420Z,4.70
2023-03-22T10:45:47.333Z,5.40
2023-03-22T10:46:47.317Z,4.40
2023-03-22T10:47:47.303Z,4.70
2023-03-22T10:48:47.263Z,5.50
2023-03-22T10:49:47.233Z,5.00
2023-03-22T10:50:47.222Z,8.70
2023-03-22T10:51:47.235Z,5.50
2023-03-22T10:52:47.192Z,4.40
2023-03-22T10:53:47.315Z,8.60
2023-03-22T10:54:47.237Z,6.80
2023-03-22T10:55:47.172Z,6.30
2023-03-22T10:56:47.192Z,7.10
2023-03-22T10:57:47.118Z,6.60
2023-03-22T10:58:48.174Z,5.10
2023-03-22T10:59:47.119Z,6.60
2023-03-22T11:00:47.375Z,5.00
2023-03-22T11:01:47.393Z,6.80
2023-03-22T11:02:47.256Z,5.80
2023-03-22T11:03:47.163Z,5.10
2023-03-22T11:04:47.099Z,4.60
2023-03-22T11:05:47.013Z,6.30
2023-03-22T11:06:47.091Z,6.90
2023-03-22T11:07:47.151Z,6.40
2023-03-22T11:08:47.143Z,3.90
2023-03-22T11:09:47.086Z,3.80
2023-03-22T11:10:47.043Z,5.30
2023-03-22T11:11:47.008Z,5.30
2023-03-22T11:12:46.937Z,4.80
2023-03-22T11:13:46.963Z,4.90
2023-03-22T11:14:46.924Z,5.50
2023-03-22T11:15:46.944Z,4.10
2023-03-22T11:16:46.890Z,6.00
2023-03-22T11:17:46.855Z,7.80
2023-03-22T11:18:46.965Z,7.90
2023-03-22T11:19:47.028Z,4.30
2023-03-22T11:20:46.886Z,4.20
2023-03-22T11:21:46.942Z,11.40
2023-03-22T11:22:46.846Z,4.40
2023-03-22T11:23:46.886Z,5.50
2023-03-22T11:24:46.759Z,4.60
2023-03-22T11:25:46.886Z,5.90
2023-03-22T11:26:46.759Z,5.30
2023-03-22T11:27:46.745Z,6.20
2023-03-22T11:28:46.724Z,9.30
2023-03-22T11:29:46.710Z,6.00
2023-03-22T11:30:46.698Z,10.00
2023-03-22T11:31:46.680Z,7.30
2023-03-22T11:32:46.744Z,7.10
2023-03-22T11:33:46.660Z,7.90
2023-03-22T11:34:46.684Z,5.50
2023-03-22T11:35:46.643Z,7.10
2023-03-22T11:37:45.587Z,4.80
2023-03-22T11:38:47.421Z,5.00
2023-03-22T11:39:46.575Z,6.70
2023-03-22T11:40:46.549Z,6.50
2023-03-22T11:41:46.529Z,5.30
2023-03-22T11:42:46.511Z,6.60
2023-03-22T11:43:46.496Z,7.20
2023-03-22T11:44:46.555Z,6.10
2023-03-22T11:45:46.548Z,8.00
2023-03-22T11:46:46.487Z,5.20
2023-03-22T11:47:46.576Z,5.50
2023-03-22T11:48:46.538Z,11.00
2023-03-22T11:49:46.602Z,7.70
2023-03-22T11:50:46.451Z,6.30
2023-03-22T11:51:46.453Z,6.80
2023-03-22T11:52:46.375Z,5.20
2023-03-22T11:53:46.368Z,6.90
2023-03-22T11:54:46.377Z,6.70
2023-03-22T11:55:46.321Z,6.80
2023-03-22T11:56:46.390Z,5.40
2023-03-22T11:57:46.344Z,6.90
2023-03-22T11:58:46.315Z,5.80
2023-03-22T11:59:46.326Z,8.10
2023-03-22T12:00:46.263Z,9.20
2023-03-22T12:01:46.263Z,5.40
2023-03-22T12:02:46.419Z,6.20
2023-03-22T12:03:46.367Z,7.40
2023-03-22T12:04:46.327Z,5.40
2023-03-22T12:05:46.274Z,4.50
2023-03-22T12:06:46.221Z,5.60
2023-03-22T12:07:46.220Z,9.40
2023-03-22T12:08:46.150Z,7.00
2023-03-22T12:09:46.165Z,7.30
2023-03-22T12:10:46.174Z,5.40
2023-03-22T12:11:46.140Z,5.20
2023-03-22T12:12:46.110Z,6.40
2023-03-22T12:13:46.156Z,4.80
2023-03-22T12:14:46.179Z,5.90
2023-03-22T12:15:46.632Z,6.10
2023-03-22T12:16:46.256Z,7.40
2023-03-22T12:17:46.130Z,5.90
2023-03-22T12:18:46.065Z,6.00
2023-03-22T12:20:20.098Z,5.80
2023-03-22T12:20:49.089Z,4.60
2023-03-22T12:21:46.050Z,6.30
2023-03-22T12:22:45.970Z,2.50
2023-03-22T12:23:45.941Z,7.40
2023-03-22T12:24:45.999Z,7.90
2023-03-22T12:25:45.966Z,4.10
2023-03-22T12:26:45.983Z,6.90
2023-03-22T12:27:46.008Z,8.60
2023-03-22T12:28:45.919Z,7.00
2023-03-22T12:29:46.010Z,3.90
2023-03-22T12:30:45.995Z,5.90
2023-03-22T12:31:45.936Z,4.20
2023-03-22T12:32:45.928Z,5.40
2023-03-22T12:33:45.830Z,8.50
2023-03-22T12:34:45.874Z,4.50
2023-03-22T12:35:45.865Z,5.00
2023-03-22T12:36:45.787Z,7.20
2023-03-22T12:37:45.773Z,5.30
2023-03-22T12:38:45.789Z,5.60
2023-03-22T12:39:45.754Z,6.10
2023-03-22T12:40:45.727Z,7.60
2023-03-22T12:41:45.754Z,5.00
2023-03-22T12:42:51.703Z,5.40
2023-03-22T12:43:45.700Z,4.20
2023-03-22T12:44:52.826Z,5.00
2023-03-22T12:45:45.671Z,9.90
2023-03-22T12:46:45.741Z,5.70
2023-03-22T12:47:45.867Z,4.90
2023-03-22T12:48:46.636Z,4.50
2023-03-22T12:49:45.623Z,5.30
2023-03-22T12:50:45.585Z,3.40
2023-03-22T12:51:45.585Z,7.70
2023-03-22T12:52:46.162Z,5.90
2023-03-22T12:53:45.619Z,6.30
2023-03-22T12:54:45.698Z,4.80
2023-03-22T12:55:45.660Z,6.10
2023-03-22T12:56:45.539Z,5.00
2023-03-22T12:57:45.543Z,4.70
2023-03-22T12:58:45.486Z,4.90
2023-03-22T12:59:45.459Z,6.50
2023-03-22T13:00:45.501Z,5.50
2023-03-22T13:01:45.428Z,3.10
2023-03-22T13:02:45.463Z,7.60
2023-03-22T13:03:45.627Z,5.30
2023-03-22T13:04:45.428Z,6.70
2023-03-22T13:05:45.423Z,5.40
2023-03-22T13:06:45.388Z,3.30
2023-03-22T13:07:45.372Z,6.10
2023-03-22T13:08:45.325Z,8.20